Appleton, Wisconsin
Current Conditions -  °F | °C
As of 6:45 PM on Monday 20 Oct 2014 (Local Time) from KATW Reporting Station
Overcast Overcast  
Wind Chill: 50°   Ceiling: 4100
Heat Index: 50°   Visibility: 10mi
Dew Point: 43°   Wind: 8mph
Humidity: 76%   Direction: 310°NW
Pressure: 29.98"   Gusts: NA
Location:  44.26°N, 88.42°W
Report Text: KATW 202345Z 31007KT 10SM BKN041 OVC048 10/06 A2998
Loading
Personal Weather Stations






























Interactive Weather Map
Tropical Storm Tracking
New forecast layout! Learn more

10-Day Weather Forecast

Advertisements
Track Severe Weather on mobile